Time;durP1;ratioP1;P1;durP2;ratioP2;P2;SDS_P1;SDS_P2;PMS_P1;PMS_P2;Temp;Humidity;BMP_temperature;BMP_pressure;BME280_temperature;BME280_humidity;BME280_pressure;Samples;Min_cycle;Max_cycle;Signal;HPM_P1;HPM_P2
2021/10/25 00:00:12;;;;;;;;;76.33;57.00;;;;;-0.58;97.96;101142.44;6310748;20;3645049;-37
2021/10/25 00:02:42;;;;;;;;;77.33;56.67;;;;;-0.73;98.33;101136.19;6310262;20;3640857;-37
2021/10/25 00:05:11;;;;;;;;;76.00;59.00;;;;;-0.81;98.90;101137.88;6311714;20;2885705;-37
2021/10/25 00:07:41;;;;;;;;;79.00;59.33;;;;;-1.04;99.42;101147.34;6281968;20;2895144;-37
2021/10/25 00:10:11;;;;;;;;;76.50;58.00;;;;;-0.83;100.00;101133.47;6312324;20;2879432;-37
2021/10/25 00:12:41;;;;;;;;;77.00;61.00;;;;;-0.77;98.45;101130.88;6282646;20;2883599;-37
2021/10/25 00:15:11;;;;;;;;;69.50;56.00;;;;;-0.81;98.73;101126.47;6283225;20;2858733;-37
2021/10/25 00:17:41;;;;;;;;;80.67;60.67;;;;;-0.67;98.63;101132.72;6284923;20;2891008;-37
2021/10/25 00:20:11;;;;;;;;;80.00;59.50;;;;;-0.99;99.19;101135.09;6316825;20;2889837;-37
2021/10/25 00:22:41;;;;;;;;;81.67;62.33;;;;;-0.67;98.57;101135.34;6286548;20;2898531;-37
2021/10/25 00:25:11;;;;;;;;;84.33;60.00;;;;;-0.86;99.28;101129.03;6316976;20;2893081;-37
2021/10/25 00:27:41;;;;;;;;;78.33;59.00;;;;;-0.99;99.40;101133.31;6315137;20;2884731;-37
2021/10/25 00:30:11;;;;;;;;;78.67;55.67;;;;;-0.59;99.49;101122.22;6316277;20;2895081;-37
2021/10/25 00:32:40;;;;;;;;;78.00;57.67;;;;;-0.98;99.00;101124.53;6315565;20;2889040;-37
2021/10/25 00:35:10;;;;;;;;;79.00;60.00;;;;;-1.16;99.66;101130.56;6317994;20;2883637;-37
2021/10/25 00:37:38;;;;;;;;;71.50;54.00;;;;;-1.15;99.21;101129.66;6282691;20;2500303;-37
2021/10/25 00:40:09;;;;;;;;;87.67;62.00;;;;;-0.87;99.32;101127.25;6285984;20;3659623;-37
2021/10/25 00:42:38;;;;;;;;;77.50;61.50;;;;;-0.81;98.85;101129.97;6312730;20;2853588;-37
2021/10/25 00:45:07;;;;;;;;;79.50;61.00;;;;;-1.03;99.15;101131.53;6285272;20;2887949;-37
2021/10/25 00:47:37;;;;;;;;;90.33;64.67;;;;;-0.76;98.69;101133.53;6284848;20;3653396;-37
2021/10/25 00:50:08;;;;;;;;;81.00;59.67;;;;;-0.98;98.85;101134.19;6316134;20;2894131;-37
2021/10/25 00:52:39;;;;;;;;;84.00;64.00;;;;;-1.08;98.72;101127.06;6314128;20;3634776;-37
2021/10/25 00:55:10;;;;;;;;;90.67;66.33;;;;;-1.52;98.64;101119.63;6314270;20;3658591;-36
2021/10/25 00:57:40;;;;;;;;;94.33;66.33;;;;;-1.54;98.37;101132.78;6314998;20;3664801;-37
2021/10/25 01:00:11;;;;;;;;;84.00;63.33;;;;;-2.41;98.39;101131.66;6316459;20;3654445;-37
2021/10/25 01:02:40;;;;;;;;;75.50;55.00;;;;;-1.84;98.81;101128.06;6315450;20;2873320;-37
2021/10/25 01:05:11;;;;;;;;;80.33;61.00;;;;;-1.53;97.43;101123.13;6284479;20;3640896;-37
2021/10/25 01:07:41;;;;;;;;;79.33;59.00;;;;;-1.65;97.53;101135.28;6313229;20;2889928;-37
2021/10/25 01:10:11;;;;;;;;;83.67;63.33;;;;;-1.43;98.29;101136.41;6316175;20;2887828;-37
2021/10/25 01:12:40;;;;;;;;;77.00;60.00;;;;;-1.53;97.92;101121.38;6314413;20;2865997;-37
2021/10/25 01:15:09;;;;;;;;;84.50;66.00;;;;;-1.16;97.15;101125.28;6282505;20;2887799;-37
2021/10/25 01:17:39;;;;;;;;;85.00;60.50;;;;;-1.26;97.18;101119.88;6281976;20;3537808;-37
2021/10/25 01:20:10;;;;;;;;;85.67;62.33;;;;;-1.28;97.77;101125.16;6314017;20;3663787;-37
2021/10/25 01:22:39;;;;;;;;;75.33;59.67;;;;;-1.02;98.07;101125.41;6314306;20;2878682;-37
2021/10/25 01:25:08;;;;;;;;;72.50;54.50;;;;;-1.24;97.65;101119.03;6312123;20;2500302;-37
2021/10/25 01:27:39;;;;;;;;;79.50;58.50;;;;;-1.34;98.15;101125.97;6281551;20;2892005;-37
2021/10/25 01:30:08;;;;;;;;;65.00;52.50;;;;;-1.26;98.21;101122.50;6279431;20;2490349;-37
2021/10/25 01:32:37;;;;;;;;;77.00;61.00;;;;;-1.34;98.46;101119.84;6284775;20;2889859;-37
2021/10/25 01:35:06;;;;;;;;;79.00;62.50;;;;;-1.29;99.38;101112.84;6280390;20;2500244;-37
2021/10/25 01:37:36;;;;;;;;;85.67;61.00;;;;;-1.36;98.98;101116.28;6280093;20;3663746;-37
2021/10/25 01:40:08;;;;;;;;;75.00;61.00;;;;;-1.21;99.16;101113.81;6315280;20;2875300;-37
2021/10/25 01:42:38;;;;;;;;;84.00;62.00;;;;;-1.14;99.14;101109.47;6284437;20;3655455;-36
2021/10/25 01:45:09;;;;;;;;;85.33;61.67;;;;;-1.04;99.22;101111.31;6315685;20;3668136;-37
2021/10/25 01:47:39;;;;;;;;;80.00;61.00;;;;;-1.36;99.30;101106.63;6313887;20;2886798;-37
2021/10/25 01:50:08;;;;;;;;;79.00;62.50;;;;;-1.09;99.33;101104.25;6284439;20;2876398;-36
2021/10/25 01:52:37;;;;;;;;;71.00;55.00;;;;;-1.22;99.77;101103.25;6281798;20;2862959;-37
2021/10/25 01:55:08;;;;;;;;;72.50;57.00;;;;;-1.16;99.66;101114.75;6283390;20;2873272;-37
2021/10/25 01:57:38;;;;;;;;;78.00;55.67;;;;;-0.78;99.41;101098.34;6275977;20;2883697;-37
2021/10/25 02:00:08;;;;;;;;;82.00;59.67;;;;;-1.40;98.51;101099.56;6314329;20;2893059;-36
2021/10/25 02:02:38;;;;;;;;;85.33;61.67;;;;;-1.24;99.72;101090.03;6315312;20;3653459;-36
2021/10/25 02:05:07;;;;;;;;;72.00;54.00;;;;;-1.15;99.55;101090.13;6311395;20;2500289;-36
2021/10/25 02:07:36;;;;;;;;;74.00;57.67;;;;;-1.23;99.61;101096.22;6282776;20;3638776;-37
2021/10/25 02:10:07;;;;;;;;;79.00;55.67;;;;;-1.06;99.82;101093.72;6311720;20;3647100;-37
2021/10/25 02:12:35;;;;;;;;;79.50;58.00;;;;;-1.19;99.34;101090.97;6305495;20;2500272;-36
2021/10/25 02:15:05;;;;;;;;;76.00;56.00;;;;;-1.08;99.39;101083.16;6279123;20;2883701;-37
2021/10/25 02:17:36;;;;;;;;;81.67;57.33;;;;;-1.14;99.17;101076.09;6278154;20;2897433;-37
2021/10/25 02:20:05;;;;;;;;;69.50;54.50;;;;;-0.77;98.79;101080.75;6307316;20;2500313;-37
2021/10/25 02:22:33;;;;;;;;;72.00;54.00;;;;;-1.07;98.70;101078.78;6275115;20;2500240;-36
2021/10/25 02:25:01;;;;;;;;;65.00;51.50;;;;;-1.27;99.33;101084.75;6275970;20;2499216;-36
2021/10/25 02:27:30;;;;;;;;;64.00;50.00;;;;;-1.19;100.00;101077.78;6282385;20;2860796;-37
2021/10/25 02:30:00;;;;;;;;;78.67;57.67;;;;;-1.47;99.54;101084.56;6282510;20;2901409;-37
2021/10/25 02:32:30;;;;;;;;;84.00;62.67;;;;;-1.43;98.56;101085.47;6315331;20;2899233;-36
2021/10/25 02:35:00;;;;;;;;;83.00;66.00;;;;;-1.22;97.63;101075.13;6314794;20;2881687;-37
2021/10/25 02:37:33;;;;;;;;;85.33;64.00;;;;;-1.91;98.13;101076.19;6312579;20;2908042;-38
2021/10/25 02:40:04;;;;;;;;;91.67;66.67;;;;;-1.70;99.19;101079.06;6313127;20;3657495;-36
2021/10/25 02:42:34;;;;;;;;;89.33;65.33;;;;;-1.87;99.06;101076.25;6313990;20;2900369;-37
2021/10/25 02:45:05;;;;;;;;;88.33;64.00;;;;;-1.38;98.06;101086.41;6313695;20;3655469;-37
2021/10/25 02:47:35;;;;;;;;;78.67;56.33;;;;;-1.48;98.63;101084.53;6311779;20;2883569;-36
2021/10/25 02:50:05;;;;;;;;;80.33;60.00;;;;;-1.62;98.45;101079.16;6314363;20;2898297;-37
2021/10/25 02:52:33;;;;;;;;;69.00;57.00;;;;;-1.51;99.56;101087.16;6305614;20;2500246;-37
2021/10/25 02:55:04;;;;;;;;;91.33;64.67;;;;;-1.37;97.72;101088.16;6282894;20;2903478;-36
2021/10/25 02:57:33;;;;;;;;;81.50;60.50;;;;;-1.73;98.27;101080.78;6310279;20;2884710;-37
2021/10/25 03:00:11;;;;;;;;;82.33;59.33;;;;;-1.91;97.45;101081.47;6279653;20;2894030;-37
2021/10/25 03:02:40;;;;;;;;;73.00;60.00;;;;;-2.17;97.96;101074.13;6316585;20;2500304;-37
2021/10/25 03:05:10;;;;;;;;;80.50;59.00;;;;;-1.89;97.49;101074.47;6282102;20;2879476;-37
2021/10/25 03:07:39;;;;;;;;;76.50;58.50;;;;;-2.20;96.98;101076.72;6281881;20;2875276;-36
2021/10/25 03:10:09;;;;;;;;;75.50;61.00;;;;;-2.22;98.18;101065.28;6282763;20;2869124;-37
2021/10/25 03:12:39;;;;;;;;;121.33;87.00;;;;;-2.27;98.16;101056.44;6282030;20;3691916;-37
2021/10/25 03:15:10;;;;;;;;;158.75;108.25;;;;;-1.95;97.64;101053.31;6282370;20;3725350;-37
2021/10/25 03:17:40;;;;;;;;;207.67;147.67;;;;;-1.83;96.82;101056.97;6275895;20;3704426;-36
2021/10/25 03:20:12;;;;;;;;;227.25;164.75;;;;;-2.18;96.94;101053.94;6280501;20;3708696;-37
2021/10/25 03:22:43;;;;;;;;;228.75;164.00;;;;;-2.30;97.62;101048.53;6279890;20;3713058;-37
2021/10/25 03:25:15;;;;;;;;;219.75;165.75;;;;;-2.18;97.37;101050.44;6279393;20;3721223;-36
2021/10/25 03:27:48;;;;;;;;;218.25;157.00;;;;;-2.11;97.33;101044.38;6278696;20;3722301;-37
2021/10/25 03:30:18;;;;;;;;;170.67;133.33;;;;;-2.02;97.99;101050.63;6279223;20;3703369;-36
2021/10/25 03:32:48;;;;;;;;;104.67;72.67;;;;;-1.88;97.58;101042.00;6281216;20;3677423;-37
2021/10/25 03:35:18;;;;;;;;;102.33;72.33;;;;;-1.89;97.87;101043.75;6280084;20;3679515;-36
2021/10/25 03:37:49;;;;;;;;;97.67;71.33;;;;;-1.69;98.08;101049.22;6278221;20;3648288;-37
2021/10/25 03:40:18;;;;;;;;;78.00;60.00;;;;;-1.77;97.83;101043.00;6312770;20;2877595;-37
2021/10/25 03:42:50;;;;;;;;;72.50;54.00;;;;;-1.63;98.30;101046.69;6278958;20;2895049;-37
2021/10/25 03:45:30;;;;;;;;;40.00;14.50;;;;;-1.89;98.28;101042.88;6300987;20;2853577;-37
2021/10/25 03:50:31;;;;;;;;;72.00;60.00;;;;;-1.86;99.66;101045.53;6305810;20;2500287;-37
2021/10/25 03:53:13;;;;;;;;;90.00;66.00;;;;;-1.81;98.69;101046.47;6280005;20;3639831;-37
2021/10/25 03:55:54;;;;;;;;;88.33;66.67;;;;;-2.08;99.12;101047.94;6312103;20;3659646;-37
2021/10/25 04:28:37;;;;;;;;;88.33;65.00;;;;;-2.75;98.19;101020.75;6309897;20;3657519;-37
2021/10/25 04:31:07;;;;;;;;;89.33;64.33;;;;;-2.71;98.92;101019.94;6312067;20;3666909;-36
2021/10/25 04:33:37;;;;;;;;;77.00;56.67;;;;;-2.70;98.94;101016.44;6309892;20;2888874;-37
2021/10/25 04:36:07;;;;;;;;;79.50;58.50;;;;;-2.31;98.18;101023.09;6312913;20;2882587;-37
2021/10/25 04:38:37;;;;;;;;;88.33;65.33;;;;;-2.53;97.55;101019.28;6277251;20;3665967;-37
2021/10/25 04:41:06;;;;;;;;;91.33;66.00;;;;;-2.22;98.25;101023.19;6311817;20;3658538;-37
2021/10/25 04:43:39;;;;;;;;;87.33;66.00;;;;;-2.49;98.37;101016.72;6311205;20;2893002;-36
2021/10/25 04:46:08;;;;;;;;;92.00;69.00;;;;;-2.50;99.24;101020.25;6312160;20;3659662;-36
2021/10/25 04:48:38;;;;;;;;;88.67;64.67;;;;;-2.73;99.34;101011.16;6309272;20;2891912;-36
2021/10/25 04:51:09;;;;;;;;;87.00;65.33;;;;;-2.68;99.28;101010.34;6310546;20;3648140;-37
2021/10/25 04:53:38;;;;;;;;;91.00;66.67;;;;;-2.67;98.79;101014.75;6311171;20;3649205;-36
2021/10/25 04:56:08;;;;;;;;;86.50;63.50;;;;;-2.38;97.63;101014.25;6309006;20;2884792;-37
2021/10/25 04:58:37;;;;;;;;;77.00;59.00;;;;;-2.65;97.38;101009.50;6277582;20;2876341;-36
2021/10/25 05:01:05;;;;;;;;;71.50;56.00;;;;;-3.05;96.79;101008.03;6273410;20;2498153;-36
2021/10/25 05:03:35;;;;;;;;;73.00;57.00;;;;;-3.35;97.91;101010.22;6279417;20;2495203;-36
2021/10/25 05:06:05;;;;;;;;;71.00;50.50;;;;;-2.71;97.71;101014.69;6280731;20;2874352;-37
2021/10/25 05:08:33;;;;;;;;;75.00;61.00;;;;;-2.29;95.85;101018.72;6282885;20;2500241;-36
2021/10/25 05:11:03;;;;;;;;;78.67;58.33;;;;;-2.63;95.44;101020.94;6283753;20;2891931;-36
2021/10/25 05:13:31;;;;;;;;;73.00;56.50;;;;;-3.04;97.04;101010.69;6311689;20;2500261;-36
2021/10/25 05:16:01;;;;;;;;;71.50;55.50;;;;;-2.97;97.65;101012.56;6283776;20;3623271;-37
2021/10/25 05:18:30;;;;;;;;;64.50;48.00;;;;;-2.74;98.47;101014.63;6313750;20;2860690;-36
2021/10/25 05:20:59;;;;;;;;;67.00;50.50;;;;;-2.40;97.46;101007.19;6285865;20;2868112;-36
2021/10/25 05:23:28;;;;;;;;;69.50;52.50;;;;;-2.29;96.66;101000.31;6281390;20;2869028;-37
2021/10/25 05:25:56;;;;;;;;;56.50;45.00;;;;;-2.38;96.04;100993.19;6282971;20;2865886;-37
2021/10/25 05:28:26;;;;;;;;;52.50;43.00;;;;;-2.40;96.02;101005.44;6278015;20;2899239;-36
2021/10/25 05:30:55;;;;;;;;;61.00;46.50;;;;;-2.38;96.45;101003.72;6282485;20;2869402;-36
2021/10/25 05:33:24;;;;;;;;;63.00;44.67;;;;;-2.34;97.08;101002.91;6283867;20;2887184;-36
2021/10/25 05:35:52;;;;;;;;;67.00;51.00;;;;;-2.21;97.63;101014.47;6311202;20;2467956;-36
2021/10/25 05:38:20;;;;;;;;;66.50;52.00;;;;;-2.13;98.05;101012.78;6279410;20;2508598;-36
2021/10/25 05:40:48;;;;;;;;;80.50;61.00;;;;;-2.03;97.95;101009.41;6279638;20;2500483;-36
2021/10/25 05:43:16;;;;;;;;;78.00;58.00;;;;;-1.88;98.26;101007.78;6279752;20;2500261;-36
2021/10/25 05:45:44;;;;;;;;;66.00;46.00;;;;;-1.52;97.52;101009.03;6281495;20;2872151;-36
2021/10/25 05:48:13;;;;;;;;;60.00;49.50;;;;;-1.62;97.57;101008.94;6282883;20;2858577;-36
2021/10/25 05:50:43;;;;;;;;;65.00;51.00;;;;;-1.61;98.00;101010.69;6277492;20;2500302;-36
2021/10/25 05:53:13;;;;;;;;;79.50;56.50;;;;;-1.64;98.44;101004.50;6283837;20;2887771;-37
2021/10/25 05:55:45;;;;;;;;;104.67;73.00;;;;;-1.50;97.83;101009.91;6281375;20;3682540;-37
2021/10/25 05:58:21;;;;;;;;;80.33;60.00;;;;;-1.53;98.26;101017.78;6281033;20;2889850;-37
2021/10/25 06:01:00;;;;;;;;;63.00;48.50;;;;;-1.22;97.96;101017.16;6311070;20;2499259;-37
2021/10/25 06:03:32;;;;;;;;;49.50;41.00;;;;;-0.56;96.87;101016.72;6279939;20;2508580;-37
2021/10/25 06:06:01;;;;;;;;;68.00;47.00;;;;;-0.96;97.15;101019.13;6278554;20;2493009;-37
2021/10/25 06:08:30;;;;;;;;;46.00;34.50;;;;;-0.88;97.17;101022.69;6282089;20;2860728;-37
2021/10/25 06:10:59;;;;;;;;;67.00;50.00;;;;;-0.48;96.68;101026.44;6284027;20;2868997;-37
2021/10/25 06:13:32;;;;;;;;;67.00;53.00;;;;;-0.50;95.62;101022.03;6282754;20;2500286;-37
2021/10/25 06:18:42;;;;;;;;;76.00;57.33;;;;;0.56;93.54;101036.44;6311914;20;2891021;-37
2021/10/25 06:21:12;;;;;;;;;68.50;51.50;;;;;1.77;85.58;101037.19;6314474;20;2871118;-37
2021/10/25 06:23:40;;;;;;;;;64.50;45.00;;;;;1.66;87.15;101043.38;6278450;20;2493104;-37
2021/10/25 06:26:09;;;;;;;;;61.00;47.00;;;;;1.63;84.69;101032.78;6284569;20;2874224;-37
2021/10/25 06:28:37;;;;;;;;;64.50;48.00;;;;;0.96;87.92;101039.09;6280744;20;2887755;-37
2021/10/25 06:31:08;;;;;;;;;70.00;50.33;;;;;3.71;82.46;101048.94;6282363;20;2882534;-37
2021/10/25 06:33:43;;;;;;;;;63.67;50.00;;;;;7.36;64.96;101056.31;6313553;20;2870197;-38
2021/10/25 06:36:17;;;;;;;;;66.67;49.67;;;;;8.09;61.57;101059.63;6313582;20;2876526;-37
2021/10/25 06:41:21;;;;;;;;;67.33;52.33;;;;;6.41;65.51;101058.63;6282364;20;2874255;-37
2021/10/25 06:43:51;;;;;;;;;64.00;51.33;;;;;5.77;67.80;101068.84;6313253;20;2864976;-37
2021/10/25 06:46:21;;;;;;;;;62.33;47.33;;;;;4.90;70.44;101066.81;6311445;20;3621096;-37
2021/10/25 06:48:50;;;;;;;;;60.33;47.00;;;;;4.32;74.35;101067.69;6312037;20;2867108;-37
2021/10/25 06:51:20;;;;;;;;;54.00;44.00;;;;;7.23;66.87;101077.13;6312989;20;2837291;-37
2021/10/25 06:53:49;;;;;;;;;49.50;42.00;;;;;10.97;54.08;101080.88;6282981;20;2870068;-37
2021/10/25 06:56:19;;;;;;;;;66.00;53.00;;;;;11.21;52.90;101076.28;6281480;20;3612736;-36
2021/10/25 06:58:47;;;;;;;;;34.50;27.50;;;;;10.67;52.78;101083.00;6312026;20;2847118;-37
2021/10/25 07:01:18;;;;;;;;;62.00;48.50;;;;;10.29;53.99;101081.78;6282213;20;2855458;-37
2021/10/25 07:03:48;;;;;;;;;112.67;100.67;;;;;8.03;58.16;101081.22;6281124;20;3702402;-37
2021/10/25 07:06:17;;;;;;;;;60.00;49.50;;;;;4.84;70.56;101070.44;6281354;20;2852383;-37
2021/10/25 07:08:49;;;;;;;;;64.33;50.67;;;;;3.62;77.20;101064.97;6285033;20;3625216;-37
2021/10/25 07:11:18;;;;;;;;;75.33;55.67;;;;;3.68;77.87;101066.69;6317143;20;3648118;-37
2021/10/25 07:13:49;;;;;;;;;45.33;40.00;;;;;3.85;78.08;101063.84;6316027;20;3608552;-37
2021/10/25 07:16:27;;;;;;;;;62.67;46.33;;;;;3.24;80.31;101062.72;6283264;20;2877305;-37
2021/10/25 08:06:15;;;;;;;;;35.00;30.50;;;;;6.14;73.31;101061.00;6315346;20;2845040;-37
2021/10/25 08:11:22;;;;;;;;;52.50;43.00;;;;;6.82;71.81;101058.56;6315624;20;2862734;-38
2021/10/25 08:14:14;;;;;;;;;43.50;38.00;;;;;6.65;71.98;101049.19;6283708;20;2850292;-38
2021/10/25 08:22:08;;;;;;;;;42.00;37.00;;;;;6.94;70.86;101052.03;6279063;20;2500309;-38
2021/10/25 08:24:45;;;;;;;;;28.00;27.00;;;;;6.59;70.74;101059.09;6275467;20;2849256;-38
2021/10/25 08:27:20;;;;;;;;;30.50;28.00;;;;;6.99;70.43;101055.47;6279888;20;2846222;-38
2021/10/25 08:29:50;;;;;;;;;34.67;29.00;;;;;7.26;69.29;101056.53;6275614;20;3616998;-38
2021/10/25 08:40:02;;;;;;;;;35.33;29.00;;;;;7.21;70.27;101042.47;6285617;20;2860687;-37
2021/10/25 08:42:39;;;;;;;;;45.67;38.67;;;;;8.05;68.20;101043.69;6321147;20;2873365;-39
2021/10/25 08:45:17;;;;;;;;;32.33;30.67;;;;;7.98;66.81;101042.13;6321243;20;3602376;-38
2021/10/25 08:47:49;;;;;;;;;49.67;37.33;;;;;8.08;67.24;101039.16;6287095;20;2876339;-40
2021/10/25 08:50:23;;;;;;;;;39.33;33.67;;;;;8.00;66.09;101046.50;6322688;20;3605416;-38
2021/10/25 08:52:54;;;;;;;;;31.67;27.00;;;;;8.05;65.97;101047.25;6288153;20;2869224;-38
2021/10/25 08:55:23;;;;;;;;;64.50;51.50;;;;;7.85;66.38;101044.28;6320123;20;2864858;-37
2021/10/25 08:57:54;;;;;;;;;48.67;40.00;;;;;8.21;65.92;101044.13;6286947;20;2855472;-39
2021/10/25 09:00:49;;;;;;;;;34.00;24.33;;;;;8.46;64.51;101041.63;6321981;20;3593021;-38
2021/10/25 09:03:20;;;;;;;;;57.50;46.00;;;;;8.45;64.73;101043.44;6288873;20;2860682;-38
2021/10/25 09:06:00;;;;;;;;;26.50;24.00;;;;;8.11;65.19;101036.38;6287688;20;2845090;-38
2021/10/25 09:08:30;;;;;;;;;35.33;28.00;;;;;8.66;65.17;101043.66;6287731;20;2860683;-38
2021/10/25 09:10:59;;;;;;;;;35.33;32.00;;;;;9.07;63.97;101049.47;6319228;20;3607546;-38
2021/10/25 09:13:29;;;;;;;;;26.50;23.00;;;;;8.75;63.79;101041.56;6287977;20;2851319;-38
2021/10/25 09:16:03;;;;;;;;;75.00;58.33;;;;;9.12;63.77;101048.38;6287994;20;2874261;-39
2021/10/25 09:18:38;;;;;;;;;28.00;23.67;;;;;8.72;63.93;101051.50;6319034;20;3586676;-39
2021/10/25 09:21:13;;;;;;;;;24.00;24.00;;;;;9.26;63.19;101045.22;6286226;20;2847294;-39
2021/10/25 09:23:49;;;;;;;;;48.67;38.67;;;;;9.64;62.01;101040.34;6286062;20;2864927;-39
2021/10/25 09:26:28;;;;;;;;;31.33;26.67;;;;;9.23;62.26;101040.84;6317164;20;2849179;-39
2021/10/25 09:29:04;;;;;;;;;27.67;25.67;;;;;9.37;62.12;101040.41;6317417;20;2850351;-39
2021/10/25 09:31:35;;;;;;;;;53.67;40.67;;;;;9.62;61.36;101039.53;6318775;20;2864853;-39
2021/10/25 09:34:13;;;;;;;;;57.00;45.67;;;;;9.65;61.88;101036.72;6319439;20;3611674;-40
2021/10/25 09:36:49;;;;;;;;;54.33;42.33;;;;;9.95;60.90;101034.72;6319514;20;3610774;-39
2021/10/25 09:39:26;;;;;;;;;64.33;52.33;;;;;10.16;59.93;101045.56;6285878;20;3617948;-40
2021/10/25 09:50:22;;;;;;;;;18.33;17.67;;;;;10.44;58.18;101032.00;6288304;20;3560654;-40
2021/10/25 09:52:50;;;;;;;;;17.00;17.00;;;;;10.13;58.85;101029.59;6286189;20;2816917;-40
2021/10/25 09:55:20;;;;;;;;;20.00;20.00;;;;;10.56;58.45;101015.41;6288938;20;2829397;-39
2021/10/25 09:58:04;;;;;;;;;23.00;20.50;;;;;10.07;58.32;101022.66;6287641;20;2828354;-40
2021/10/25 10:00:32;;;;;;;;;20.33;16.67;;;;;10.87;57.39;101016.81;6284963;20;3560693;-40
2021/10/25 10:03:02;;;;;;;;;16.67;13.67;;;;;10.61;57.46;101008.06;6284784;20;3544171;-40
2021/10/25 10:05:36;;;;;;;;;28.00;24.00;;;;;10.89;56.45;101006.91;6283633;20;2723216;-40
2021/10/25 10:08:07;;;;;;;;;30.33;21.33;;;;;10.85;56.74;101007.94;6317137;20;2858571;-40
2021/10/25 10:10:39;;;;;;;;;20.00;17.50;;;;;11.23;56.19;101003.66;6313190;20;2483578;-39
2021/10/25 10:13:12;;;;;;;;;64.67;51.00;;;;;10.98;56.27;101001.16;6285019;20;2871148;-40
2021/10/25 10:15:43;;;;;;;;;55.67;44.33;;;;;10.95;55.85;100996.78;6314403;20;2854576;-39
2021/10/25 10:18:22;;;;;;;;;25.00;21.50;;;;;11.00;56.08;100999.25;6316739;20;2834678;-40
2021/10/25 10:21:01;;;;;;;;;27.00;22.50;;;;;10.74;56.27;100990.50;6283567;20;2493979;-39
2021/10/25 10:23:33;;;;;;;;;35.00;19.67;;;;;10.95;56.26;100995.88;6282839;20;2873282;-39
2021/10/25 10:26:12;;;;;;;;;13.50;13.50;;;;;11.10;54.98;100989.00;6318761;20;2807605;-39
2021/10/25 10:28:51;;;;;;;;;22.00;13.00;;;;;11.03;54.66;100984.81;6284262;20;3550218;-39
2021/10/25 10:31:26;;;;;;;;;21.67;21.00;;;;;11.46;54.50;100981.16;6288271;20;3583567;-39
2021/10/25 10:33:59;;;;;;;;;20.50;20.50;;;;;11.32;54.39;100978.16;6284386;20;2500248;-39
2021/10/25 10:36:34;;;;;;;;;20.50;17.00;;;;;11.44;54.83;100977.66;6283446;20;2831546;-39
2021/10/25 10:39:11;;;;;;;;;19.67;18.33;;;;;11.68;53.43;100974.78;6283250;20;3566915;-39
2021/10/25 10:41:50;;;;;;;;;28.00;17.50;;;;;11.73;52.80;100976.31;6283568;20;2496108;-39
2021/10/25 10:44:24;;;;;;;;;20.50;18.50;;;;;12.12;52.59;100974.59;6286348;20;2833591;-38
2021/10/25 10:47:07;;;;;;;;;17.60;12.60;;;;;12.51;53.14;100978.06;6312131;20;2806640;-40
2021/10/25 10:49:44;;;;;;;;;17.50;16.00;;;;;12.22;52.31;100971.38;6286376;20;2498401;-39
2021/10/25 10:55:23;;;;;;;;;50.00;35.00;;;;;12.51;50.62;100971.81;6286827;20;3612695;-40
2021/10/25 11:00:35;;;;;;;;;26.00;23.00;;;;;12.69;50.80;100956.53;6285664;20;2850237;-40
2021/10/25 11:03:32;;;;;;;;;20.00;18.33;;;;;12.65;50.53;100945.03;6282266;20;3575337;-40
2021/10/25 11:06:11;;;;;;;;;13.33;10.00;;;;;12.58;50.24;100950.81;6283979;20;3510669;-39
2021/10/25 11:08:45;;;;;;;;;18.00;17.00;;;;;12.36;51.16;100935.69;6314855;20;3557517;-40
2021/10/25 11:11:21;;;;;;;;;51.33;42.00;;;;;12.54;49.54;100933.94;6313678;20;2855947;-40
2021/10/25 11:13:57;;;;;;;;;18.00;15.67;;;;;12.40;49.56;100922.94;6316242;20;3548239;-39
2021/10/25 11:19:04;;;;;;;;;26.00;25.00;;;;;12.94;49.50;100910.34;6284975;20;2842044;-39
2021/10/25 11:21:49;;;;;;;;;13.67;13.00;;;;;12.80;49.26;100904.81;6285802;20;3514880;-39
2021/10/25 11:24:22;;;;;;;;;12.40;7.80;;;;;13.20;49.94;100908.13;6341875;20;2771158;-39
2021/10/25 11:27:00;;;;;;;;;24.33;22.00;;;;;12.93;49.92;100895.13;6284973;20;3578360;-39
2021/10/25 11:29:36;;;;;;;;;58.33;46.33;;;;;13.24;50.04;100896.19;6282643;20;3627303;-40
2021/10/25 11:32:10;;;;;;;;;11.50;10.00;;;;;12.95;49.92;100899.50;6317391;20;2791933;-39
2021/10/25 11:34:47;;;;;;;;;29.00;26.00;;;;;13.35;49.92;100894.72;6286788;20;2850258;-38
2021/10/25 11:37:20;;;;;;;;;28.00;25.33;;;;;13.53;51.25;100891.97;6287629;20;3581469;-39
2021/10/25 11:40:04;;;;;;;;;14.50;12.00;;;;;13.15;52.80;100886.78;6288643;20;2794102;-38
2021/10/25 11:42:39;;;;;;;;;17.00;13.00;;;;;13.24;53.41;100886.28;6286457;20;2788976;-40
2021/10/25 11:45:20;;;;;;;;;13.00;11.00;;;;;13.39;52.35;100890.88;6286499;20;2786722;-40
2021/10/25 11:47:51;;;;;;;;;17.00;14.00;;;;;12.74;52.33;100881.72;6288993;20;2806574;-39
2021/10/25 11:50:23;;;;;;;;;14.00;9.50;;;;;13.29;52.05;100878.84;6286334;20;2785655;-40
2021/10/25 11:52:58;;;;;;;;;20.33;15.33;;;;;13.11;51.44;100871.69;6284267;20;3549191;-39
2021/10/25 11:55:34;;;;;;;;;21.33;21.33;;;;;13.50;51.16;100878.63;6314962;20;3572169;-39
2021/10/25 11:58:13;;;;;;;;;22.00;21.00;;;;;13.26;51.35;100868.22;6281439;20;2828416;-40
2021/10/25 12:00:49;;;;;;;;;38.00;33.00;;;;;13.60;50.81;100851.06;6284722;20;2840917;-40
2021/10/25 12:03:26;;;;;;;;;50.00;38.00;;;;;13.70;50.80;100854.13;6280653;20;3609594;-37
2021/10/25 12:05:55;;;;;;;;;13.00;11.00;;;;;13.19;49.93;100850.59;6317314;20;2786752;-39
2021/10/25 12:08:24;;;;;;;;;40.67;32.33;;;;;13.48;50.00;100840.97;6282120;20;3613956;-39
2021/10/25 12:10:58;;;;;;;;;51.33;41.00;;;;;13.48;50.31;100840.97;6321392;20;3610641;-40
2021/10/25 12:13:27;;;;;;;;;10.67;10.67;;;;;13.60;49.97;100839.41;6289883;20;2792043;-40
2021/10/25 12:16:00;;;;;;;;;8.80;8.80;;;;;13.55;50.64;100836.94;6344390;20;2747219;-40
2021/10/25 12:18:30;;;;;;;;;8.80;7.80;;;;;13.55;49.89;100836.94;6348273;20;2748234;-39
2021/10/25 12:21:14;;;;;;;;;43.00;35.00;;;;;13.82;49.30;100834.56;6320261;20;3600264;-39
2021/10/25 12:23:48;;;;;;;;;12.67;12.67;;;;;13.73;48.95;100826.97;6286598;20;2789852;-39
2021/10/25 12:26:18;;;;;;;;;28.33;23.67;;;;;13.66;49.18;100828.25;6322323;20;3587719;-39
2021/10/25 12:28:45;;;;;;;;;10.00;10.00;;;;;13.70;49.52;100824.44;6291574;20;2796064;-39
2021/10/25 12:31:20;;;;;;;;;11.00;9.00;;;;;13.57;49.47;100818.00;6291549;20;2769134;-40
2021/10/25 12:34:03;;;;;;;;;7.60;7.60;;;;;13.41;49.25;100822.50;6315936;20;2748309;-38
2021/10/25 12:36:44;;;;;;;;;7.50;7.00;;;;;13.41;49.16;100817.09;6321079;20;2743992;-37
2021/10/25 12:39:18;;;;;;;;;15.00;13.00;;;;;13.62;49.98;100810.50;6288601;20;2814882;-38
2021/10/25 12:41:57;;;;;;;;;16.00;16.00;;;;;13.60;48.17;100809.72;6285534;20;2818438;-38
2021/10/25 12:44:36;;;;;;;;;12.50;9.00;;;;;13.47;49.31;100812.22;6289160;20;2771132;-39
2021/10/25 12:47:21;;;;;;;;;11.50;10.50;;;;;13.57;49.09;100807.19;6291013;20;2788843;-39
2021/10/25 12:50:00;;;;;;;;;30.00;27.67;;;;;13.81;48.79;100800.41;6290076;20;3583579;-38
2021/10/25 12:52:29;;;;;;;;;15.50;8.50;;;;;13.52;48.56;100793.94;6288674;20;2764818;-37
2021/10/25 12:55:03;;;;;;;;;14.00;11.33;;;;;13.46;48.48;100794.31;6290389;20;3526286;-39
2021/10/25 12:57:39;;;;;;;;;15.00;13.67;;;;;13.57;48.84;100791.88;6318290;20;3533557;-38
2021/10/25 13:00:17;;;;;;;;;11.33;9.00;;;;;13.63;48.45;100785.25;6319974;20;2772125;-39
2021/10/25 13:02:52;;;;;;;;;10.00;8.33;;;;;13.71;48.32;100784.81;6316808;20;3482672;-38
2021/10/25 13:05:33;;;;;;;;;7.00;7.00;;;;;13.67;48.86;100780.56;6318354;20;2747134;-40
2021/10/25 13:08:07;;;;;;;;;9.00;9.00;;;;;13.39;48.33;100776.72;6291701;20;2749300;-39
2021/10/25 13:10:43;;;;;;;;;9.67;9.67;;;;;13.65;49.70;100777.09;6289499;20;2779446;-41
2021/10/25 13:13:16;;;;;;;;;9.33;7.67;;;;;13.82;49.36;100774.28;6318147;20;2761722;-40